Time;durP1;ratioP1;P1;durP2;ratioP2;P2;SDS_P1;SDS_P2;PMS_P1;PMS_P2;Temp;Humidity;BMP_temperature;BMP_pressure;BME280_temperature;BME280_humidity;BME280_pressure;Samples;Min_cycle;Max_cycle;Signal;HPM_P1;HPM_P2
2022/04/26 03:36:33;;;;;;;20.02;16.70;;;10.70;99.90;;;;;;2081117;28;20100;-69
2022/04/26 03:37:33;;;;;;;19.77;16.60;;;10.70;99.90;;;;;;2081162;28;20025;-69
2022/04/26 03:38:34;;;;;;;20.60;16.50;;;10.70;99.90;;;;;;2080194;28;20380;-69
2022/04/26 03:39:35;;;;;;;17.35;14.40;;;10.70;99.90;;;;;;2080524;28;20108;-69
2022/04/26 03:40:36;;;;;;;18.20;15.68;;;10.70;99.90;;;;;;2082409;28;20056;-69
2022/04/26 03:41:37;;;;;;;16.92;14.55;;;10.80;99.90;;;;;;2082999;28;20742;-69
2022/04/26 03:42:37;;;;;;;17.90;16.10;;;10.80;99.90;;;;;;2081968;28;20396;-69
2022/04/26 03:43:38;;;;;;;17.83;15.95;;;10.80;99.90;;;;;;2082169;28;20041;-69
2022/04/26 03:44:39;;;;;;;17.73;15.82;;;10.80;99.90;;;;;;2082898;28;20025;-69
2022/04/26 03:45:40;;;;;;;17.60;15.77;;;10.80;99.90;;;;;;2079635;28;20025;-69
2022/04/26 03:46:40;;;;;;;17.27;15.50;;;10.80;99.90;;;;;;2080343;28;20043;-69
2022/04/26 03:47:41;;;;;;;18.17;16.05;;;10.80;99.90;;;;;;2080269;28;20029;-69
2022/04/26 03:48:41;;;;;;;18.55;16.42;;;10.80;99.90;;;;;;2079978;28;20036;-69
2022/04/26 03:49:42;;;;;;;16.90;15.13;;;10.80;99.90;;;;;;2079985;28;20075;-69
2022/04/26 03:50:42;;;;;;;19.83;16.25;;;10.80;99.90;;;;;;2082382;28;20033;-69
2022/04/26 03:51:43;;;;;;;19.35;16.13;;;10.80;99.90;;;;;;2081482;28;20020;-69
2022/04/26 03:52:44;;;;;;;14.65;13.05;;;10.80;99.90;;;;;;2079896;28;20074;-69
2022/04/26 03:53:46;;;;;;;16.75;14.65;;;10.80;99.90;;;;;;2082780;28;20040;-69
2022/04/26 03:54:47;;;;;;;15.05;13.45;;;10.70;99.90;;;;;;2079968;28;20036;-69
2022/04/26 03:55:47;;;;;;;16.42;14.73;;;10.80;99.90;;;;;;2079788;28;20033;-69
2022/04/26 03:56:48;;;;;;;16.70;14.90;;;10.80;99.90;;;;;;2080055;28;20034;-69
2022/04/26 03:57:48;;;;;;;18.30;15.77;;;10.80;99.90;;;;;;2082293;28;20032;-69
2022/04/26 03:58:49;;;;;;;21.10;16.05;;;10.80;99.90;;;;;;2081390;28;20597;-69
2022/04/26 03:59:49;;;;;;;18.30;15.57;;;10.80;99.90;;;;;;2080402;28;20033;-69
2022/04/26 04:00:50;;;;;;;19.75;16.17;;;10.80;99.90;;;;;;2079381;28;20083;-69
2022/04/26 04:01:51;;;;;;;20.80;15.40;;;10.80;99.90;;;;;;2079741;28;20092;-69
2022/04/26 04:02:52;;;;;;;17.70;15.82;;;10.80;99.90;;;;;;2079863;28;20083;-69
2022/04/26 04:03:52;;;;;;;16.63;15.02;;;10.80;99.90;;;;;;2079745;28;20064;-69
2022/04/26 04:04:53;;;;;;;16.08;14.48;;;10.80;99.90;;;;;;2079989;28;20030;-69
2022/04/26 04:05:53;;;;;;;21.60;15.65;;;10.80;99.90;;;;;;2079378;28;20129;-69
2022/04/26 04:06:54;;;;;;;14.98;13.45;;;10.80;99.90;;;;;;2081880;28;20100;-69
2022/04/26 04:07:54;;;;;;;17.60;15.60;;;10.80;99.90;;;;;;2079432;28;20063;-69
2022/04/26 04:08:55;;;;;;;20.17;14.82;;;10.80;99.90;;;;;;2081331;28;20025;-69
2022/04/26 04:09:56;;;;;;;19.30;15.98;;;10.90;99.90;;;;;;2079828;28;20500;-69
2022/04/26 04:10:56;;;;;;;19.90;13.80;;;10.80;99.90;;;;;;2079852;28;20438;-69
2022/04/26 04:11:57;;;;;;;17.20;15.40;;;10.80;99.90;;;;;;2079847;28;20025;-69
2022/04/26 04:12:57;;;;;;;15.73;14.05;;;10.80;99.90;;;;;;2079761;28;20025;-69
2022/04/26 04:13:58;;;;;;;15.38;13.88;;;10.80;99.90;;;;;;2078889;28;20059;-69
2022/04/26 04:14:58;;;;;;;16.10;14.40;;;10.80;99.90;;;;;;2079706;28;20023;-69
2022/04/26 04:15:59;;;;;;;15.43;13.38;;;10.80;99.90;;;;;;2078917;28;20548;-69
2022/04/26 04:16:59;;;;;;;18.35;13.20;;;10.80;99.90;;;;;;2079218;28;20385;-69
2022/04/26 04:18:00;;;;;;;14.45;12.48;;;10.80;99.90;;;;;;2079029;28;20029;-69
2022/04/26 04:19:18;;;;;;;16.30;13.40;;;10.80;99.90;;;;;;2078959;28;20033;-69
2022/04/26 04:20:19;;;;;;;16.15;12.85;;;10.80;99.90;;;;;;2079296;28;20124;-69
2022/04/26 04:21:20;;;;;;;15.45;13.30;;;10.70;99.90;;;;;;2079855;28;20030;-69
2022/04/26 04:22:21;;;;;;;14.50;12.90;;;10.70;99.90;;;;;;2079355;28;20030;-69
2022/04/26 04:23:22;;;;;;;13.30;11.32;;;10.70;99.90;;;;;;2079720;28;20040;-69
2022/04/26 04:24:23;;;;;;;15.13;13.35;;;10.70;99.90;;;;;;2079749;28;20079;-69
2022/04/26 04:25:23;;;;;;;12.38;10.98;;;10.70;99.90;;;;;;2078614;28;20059;-69
2022/04/26 04:26:24;;;;;;;11.38;9.88;;;10.60;99.90;;;;;;2080730;28;20662;-69
2022/04/26 04:27:25;;;;;;;15.68;12.82;;;10.70;99.90;;;;;;2080010;28;20053;-69
2022/04/26 04:28:25;;;;;;;15.95;12.95;;;10.60;99.90;;;;;;2076970;28;20547;-69
2022/04/26 04:29:26;;;;;;;13.15;11.85;;;10.70;99.90;;;;;;2080041;28;20023;-69
2022/04/26 04:30:26;;;;;;;16.15;12.38;;;10.60;99.90;;;;;;2079252;28;20033;-69
2022/04/26 04:31:27;;;;;;;12.80;11.45;;;10.60;99.90;;;;;;2079919;28;20029;-69
2022/04/26 04:32:28;;;;;;;13.48;12.18;;;10.60;99.90;;;;;;2079307;28;20025;-69
2022/04/26 04:33:29;;;;;;;15.82;11.88;;;10.60;99.90;;;;;;2079668;28;20026;-69
2022/04/26 04:34:29;;;;;;;14.40;11.88;;;10.60;99.90;;;;;;2079352;28;20049;-69
2022/04/26 04:35:30;;;;;;;18.17;12.23;;;10.60;99.90;;;;;;2078851;28;20090;-69
2022/04/26 04:36:31;;;;;;;14.93;12.43;;;10.60;99.90;;;;;;2078668;28;20025;-69
2022/04/26 04:37:32;;;;;;;15.77;12.55;;;10.60;99.90;;;;;;2077587;28;20037;-69
2022/04/26 04:38:32;;;;;;;12.70;11.23;;;10.50;99.90;;;;;;2078974;28;20112;-69
2022/04/26 04:39:33;;;;;;;14.50;12.25;;;10.50;99.90;;;;;;2079492;28;20022;-69
2022/04/26 04:40:34;;;;;;;12.65;11.38;;;10.50;99.90;;;;;;2079613;28;20029;-69
2022/04/26 04:41:37;;;;;;;15.93;12.43;;;10.50;99.90;;;;;;2082041;28;20113;-69
2022/04/26 04:42:38;;;;;;;13.27;11.95;;;10.50;99.90;;;;;;2078788;28;20037;-69
2022/04/26 04:43:38;;;;;;;13.98;12.35;;;10.40;99.90;;;;;;2079321;28;20041;-69
2022/04/26 04:44:39;;;;;;;14.65;12.23;;;10.40;99.90;;;;;;2079231;28;20033;-69
2022/04/26 04:45:40;;;;;;;14.43;12.23;;;10.40;99.90;;;;;;2078719;28;20029;-69
2022/04/26 04:46:40;;;;;;;13.57;12.18;;;10.40;99.90;;;;;;2079296;28;20029;-69
2022/04/26 04:47:41;;;;;;;13.35;11.90;;;10.40;99.90;;;;;;2079050;28;20022;-69
2022/04/26 04:48:41;;;;;;;14.75;12.07;;;10.40;99.90;;;;;;2079374;28;20030;-69
2022/04/26 04:49:42;;;;;;;16.20;12.02;;;10.30;99.90;;;;;;2077936;28;20072;-69
2022/04/26 04:50:43;;;;;;;13.10;11.25;;;10.30;99.90;;;;;;2079638;28;20112;-69
2022/04/26 04:51:44;;;;;;;14.88;13.27;;;10.30;99.90;;;;;;2077306;28;20037;-69
2022/04/26 04:52:45;;;;;;;17.10;12.07;;;10.30;99.90;;;;;;2079007;28;20022;-69
2022/04/26 04:53:46;;;;;;;14.50;11.50;;;10.30;99.90;;;;;;2078810;28;20075;-69
2022/04/26 04:54:47;;;;;;;14.38;12.57;;;10.30;99.90;;;;;;2079211;28;20168;-69
2022/04/26 04:55:47;;;;;;;13.80;11.80;;;10.20;99.90;;;;;;2078208;28;20037;-69
2022/04/26 04:56:48;;;;;;;12.18;10.88;;;10.30;99.90;;;;;;2079255;28;20573;-69
2022/04/26 04:57:48;;;;;;;14.48;12.13;;;10.20;99.90;;;;;;2078134;28;20033;-69
2022/04/26 04:58:49;;;;;;;14.80;11.90;;;10.20;99.90;;;;;;2078838;28;20033;-69
2022/04/26 04:59:50;;;;;;;16.05;12.55;;;10.20;99.90;;;;;;2078963;28;20036;-69
2022/04/26 05:00:50;;;;;;;14.88;11.82;;;10.20;99.90;;;;;;2079082;28;20091;-69
2022/04/26 05:01:51;;;;;;;15.18;11.63;;;10.20;99.90;;;;;;2077352;28;21229;-69
2022/04/26 05:02:51;;;;;;;13.02;11.65;;;10.20;99.90;;;;;;2075971;28;20022;-69
2022/04/26 05:03:52;;;;;;;15.70;12.30;;;10.20;99.90;;;;;;2078144;28;20033;-69
2022/04/26 05:04:52;;;;;;;14.00;12.20;;;10.20;99.90;;;;;;2079758;28;20516;-69
2022/04/26 05:05:53;;;;;;;14.98;12.40;;;10.20;99.90;;;;;;2079853;28;20025;-69
2022/04/26 05:06:53;;;;;;;13.93;11.88;;;10.20;99.90;;;;;;2081122;28;20043;-69
2022/04/26 05:07:54;;;;;;;17.65;12.27;;;10.20;99.90;;;;;;2079069;28;20045;-69
2022/04/26 05:08:56;;;;;;;13.57;12.18;;;10.10;99.90;;;;;;2080696;28;20025;-69
2022/04/26 05:09:58;;;;;;;13.82;11.35;;;10.10;99.90;;;;;;2080179;28;20037;-69
2022/04/26 05:10:58;;;;;;;17.42;12.70;;;10.20;99.90;;;;;;2082857;28;20038;-69
2022/04/26 05:11:59;;;;;;;15.43;11.48;;;10.20;99.90;;;;;;2080353;28;20037;-69
2022/04/26 05:12:59;;;;;;;13.98;11.80;;;10.20;99.90;;;;;;2080333;28;20032;-69
2022/04/26 05:14:00;;;;;;;12.60;10.68;;;10.10;99.90;;;;;;2080663;28;20037;-69
2022/04/26 05:15:01;;;;;;;13.77;11.55;;;10.20;99.90;;;;;;2081701;28;20079;-69
2022/04/26 05:16:01;;;;;;;18.23;13.65;;;10.20;99.90;;;;;;2077634;28;20161;-69
2022/04/26 05:17:02;;;;;;;16.67;12.45;;;10.20;99.90;;;;;;2080961;28;20017;-69
2022/04/26 05:18:03;;;;;;;15.23;12.10;;;10.20;99.90;;;;;;2081463;28;21092;-69
2022/04/26 05:19:03;;;;;;;15.25;12.18;;;10.20;99.90;;;;;;2079891;28;20090;-69
2022/04/26 05:20:05;;;;;;;16.17;12.80;;;10.30;99.90;;;;;;2080920;28;20029;-69
2022/04/26 05:21:09;;;;;;;15.35;12.60;;;10.20;99.90;;;;;;2080219;28;20107;-69
2022/04/26 05:22:09;;;;;;;17.23;13.07;;;10.20;99.90;;;;;;2080425;28;20048;-69
2022/04/26 05:25:48;;;;;;;13.52;11.63;;;10.20;99.90;;;;;;2078137;28;20026;-69
2022/04/26 05:26:49;;;;;;;14.13;12.02;;;10.30;99.90;;;;;;2078864;28;20033;-69
2022/04/26 05:27:50;;;;;;;14.65;13.15;;;10.30;99.90;;;;;;2080284;28;20047;-69
2022/04/26 05:28:50;;;;;;;13.88;12.25;;;10.30;99.90;;;;;;2080655;28;20013;-69
2022/04/26 05:29:51;;;;;;;15.35;12.68;;;10.30;99.90;;;;;;2080428;28;20510;-69
2022/04/26 05:30:52;;;;;;;15.20;12.70;;;10.20;99.90;;;;;;2080808;28;20026;-69
2022/04/26 05:31:53;;;;;;;15.55;12.68;;;10.30;99.90;;;;;;2079636;28;20097;-69
2022/04/26 05:32:54;;;;;;;14.73;12.88;;;10.30;99.90;;;;;;2079833;28;20033;-69
2022/04/26 05:33:55;;;;;;;13.68;12.25;;;10.30;99.90;;;;;;2080791;28;20113;-69
2022/04/26 05:34:56;;;;;;;13.50;12.15;;;10.30;99.90;;;;;;2080533;28;20489;-69
2022/04/26 05:35:57;;;;;;;15.80;11.88;;;10.30;99.90;;;;;;2080486;28;20024;-69
2022/04/26 05:36:58;;;;;;;14.23;12.32;;;10.30;99.90;;;;;;2080009;28;20109;-69
2022/04/26 05:37:58;;;;;;;16.63;13.27;;;10.20;99.90;;;;;;2080641;28;20026;-69
2022/04/26 05:39:00;;;;;;;14.25;12.75;;;10.20;99.90;;;;;;2080597;28;20064;-69
2022/04/26 05:40:03;;;;;;;15.52;12.90;;;10.20;99.90;;;;;;2078775;28;20473;-69
2022/04/26 05:41:04;;;;;;;14.48;12.98;;;10.20;99.90;;;;;;2081757;28;20037;-69
2022/04/26 05:42:04;;;;;;;17.95;13.23;;;10.30;99.90;;;;;;2078388;28;20034;-69
2022/04/26 05:43:05;;;;;;;13.52;12.23;;;10.20;99.90;;;;;;2079428;28;20396;-69
2022/04/26 05:44:06;;;;;;;17.42;11.95;;;10.20;99.90;;;;;;2077802;28;22724;-69
2022/04/26 05:45:07;;;;;;;17.80;13.25;;;10.20;99.90;;;;;;2077524;28;20478;-69
2022/04/26 05:46:11;;;;;;;14.07;12.65;;;10.20;99.90;;;;;;2076861;28;20717;-69
2022/04/26 05:47:12;;;;;;;13.35;11.95;;;10.20;99.90;;;;;;2079589;28;20033;-69
2022/04/26 05:48:13;;;;;;;15.57;12.95;;;10.20;99.90;;;;;;2079130;28;20083;-69
2022/04/26 05:49:14;;;;;;;17.23;13.07;;;10.20;99.90;;;;;;2079780;28;20515;-69
2022/04/26 05:50:14;;;;;;;14.68;12.82;;;10.20;99.90;;;;;;2079951;28;20572;-69
2022/04/26 05:51:15;;;;;;;16.75;13.02;;;10.20;99.90;;;;;;2077910;28;20021;-69
2022/04/26 05:52:15;;;;;;;14.38;12.77;;;10.20;99.90;;;;;;2079266;28;20061;-69
2022/04/26 05:53:16;;;;;;;15.85;12.88;;;10.20;99.90;;;;;;2078502;28;20022;-69
2022/04/26 05:54:16;;;;;;;16.23;12.35;;;10.20;99.90;;;;;;2079950;28;20029;-69
2022/04/26 05:55:18;;;;;;;14.18;12.70;;;10.30;99.90;;;;;;2080810;28;20087;-69
2022/04/26 05:56:18;;;;;;;15.10;12.68;;;10.20;99.90;;;;;;2080382;28;20021;-69
2022/04/26 05:57:19;;;;;;;16.45;12.90;;;10.30;99.90;;;;;;2080825;28;20059;-69
2022/04/26 05:58:20;;;;;;;15.13;13.30;;;10.20;99.90;;;;;;2080627;28;20021;-69
2022/04/26 05:59:21;;;;;;;16.73;12.60;;;10.30;99.90;;;;;;2080932;28;20032;-69
2022/04/26 06:00:22;;;;;;;17.67;13.45;;;10.20;99.90;;;;;;2081931;28;20040;-69
2022/04/26 06:01:22;;;;;;;16.90;12.73;;;10.20;99.90;;;;;;2080587;28;20053;-69
2022/04/26 06:02:23;;;;;;;14.63;13.13;;;10.30;99.90;;;;;;2079677;28;20057;-69
2022/04/26 06:03:24;;;;;;;16.08;13.60;;;10.30;99.90;;;;;;2077696;28;20032;-69
2022/04/26 06:04:24;;;;;;;15.60;13.43;;;10.30;99.90;;;;;;2080509;28;20022;-69
2022/04/26 06:05:25;;;;;;;17.98;14.23;;;10.30;99.90;;;;;;2078696;28;20040;-69
2022/04/26 06:06:25;;;;;;;20.85;13.55;;;10.30;99.90;;;;;;2080517;28;20022;-69
2022/04/26 06:07:27;;;;;;;17.00;13.25;;;10.30;99.90;;;;;;2079817;28;20499;-69
2022/04/26 06:08:28;;;;;;;14.52;12.35;;;10.30;99.90;;;;;;2075980;28;20076;-69
2022/04/26 06:09:28;;;;;;;14.88;13.38;;;10.30;99.90;;;;;;2082523;28;20084;-69
2022/04/26 06:10:29;;;;;;;14.52;12.90;;;10.30;99.90;;;;;;2080442;28;20071;-69
2022/04/26 06:11:30;;;;;;;19.02;13.32;;;10.30;99.90;;;;;;2080507;28;20018;-69
2022/04/26 06:12:31;;;;;;;18.42;14.15;;;10.40;99.90;;;;;;2079691;28;20021;-69
2022/04/26 06:13:31;;;;;;;16.77;13.43;;;10.40;99.90;;;;;;2080212;28;20024;-69
2022/04/26 06:14:32;;;;;;;18.25;12.65;;;10.40;99.90;;;;;;2080045;28;20030;-69
2022/04/26 06:15:32;;;;;;;22.98;14.43;;;10.40;99.90;;;;;;2080090;28;20020;-69
2022/04/26 06:16:33;;;;;;;15.18;13.50;;;10.40;99.90;;;;;;2080349;28;20022;-69
2022/04/26 06:17:34;;;;;;;17.13;14.20;;;10.40;99.90;;;;;;2080723;28;20021;-69
2022/04/26 06:18:34;;;;;;;15.75;12.50;;;10.50;99.90;;;;;;2080175;28;20105;-69
2022/04/26 06:19:35;;;;;;;12.43;10.68;;;10.50;99.90;;;;;;2080392;28;20029;-69
2022/04/26 06:20:35;;;;;;;14.77;13.23;;;10.50;99.90;;;;;;2080612;28;20441;-69
2022/04/26 06:21:36;;;;;;;16.42;13.05;;;10.50;99.90;;;;;;2075910;28;20116;-69
2022/04/26 06:22:36;;;;;;;14.25;12.50;;;10.50;99.90;;;;;;2078098;28;20026;-69
2022/04/26 06:23:37;;;;;;;16.90;13.07;;;10.60;99.90;;;;;;2080382;28;20107;-69
2022/04/26 06:24:38;;;;;;;15.73;13.82;;;10.60;99.90;;;;;;2080571;28;20018;-69
2022/04/26 06:25:39;;;;;;;15.13;13.52;;;10.60;99.90;;;;;;2080026;28;20052;-69
2022/04/26 06:26:39;;;;;;;15.43;13.77;;;10.60;99.90;;;;;;2080930;28;20030;-69
2022/04/26 06:27:40;;;;;;;18.25;14.05;;;10.70;99.90;;;;;;2080767;28;20025;-69
2022/04/26 06:28:40;;;;;;;18.55;14.52;;;10.60;99.90;;;;;;2083361;28;20017;-69
2022/04/26 06:29:41;;;;;;;17.40;14.55;;;10.70;99.90;;;;;;2080647;28;20029;-69
2022/04/26 06:30:41;;;;;;;20.77;13.85;;;10.70;99.90;;;;;;2082127;28;20429;-69
2022/04/26 06:31:42;;;;;;;15.95;13.95;;;10.70;99.90;;;;;;2080775;28;20018;-69
2022/04/26 06:32:43;;;;;;;14.82;13.05;;;10.70;99.90;;;;;;2081297;28;20033;-69
2022/04/26 06:33:43;;;;;;;15.90;13.63;;;10.70;99.90;;;;;;2083954;28;20078;-69
2022/04/26 06:34:44;;;;;;;19.15;14.25;;;10.70;99.90;;;;;;2084282;28;20044;-69
2022/04/26 06:35:44;;;;;;;17.17;13.73;;;10.80;99.90;;;;;;2080060;28;20037;-69
2022/04/26 06:36:45;;;;;;;18.90;13.95;;;10.80;99.90;;;;;;2080852;28;20037;-69
2022/04/26 06:37:46;;;;;;;18.20;14.50;;;10.80;99.90;;;;;;2080443;28;20029;-69
2022/04/26 06:38:46;;;;;;;22.13;15.80;;;10.80;99.90;;;;;;2080672;28;20113;-69
2022/04/26 06:39:47;;;;;;;12.60;11.30;;;10.80;99.90;;;;;;2080513;28;20635;-69
2022/04/26 06:40:48;;;;;;;17.20;14.00;;;10.80;99.90;;;;;;2081011;28;20112;-69
2022/04/26 06:41:48;;;;;;;18.55;15.63;;;10.80;99.90;;;;;;2084267;28;20475;-69
2022/04/26 06:42:49;;;;;;;17.02;14.88;;;10.80;99.90;;;;;;2080961;28;20460;-69
2022/04/26 06:43:50;;;;;;;16.92;14.38;;;10.80;99.90;;;;;;2080497;28;20025;-69
2022/04/26 06:44:50;;;;;;;19.75;15.02;;;10.80;99.90;;;;;;2082435;28;20031;-69
2022/04/26 06:45:51;;;;;;;19.98;15.27;;;10.80;99.90;;;;;;2081782;28;20033;-69
2022/04/26 06:46:51;;;;;;;18.13;15.82;;;10.80;99.90;;;;;;2081776;28;20362;-69
2022/04/26 06:47:54;;;;;;;17.52;14.60;;;10.80;99.90;;;;;;2081144;28;20390;-69
2022/04/26 06:48:58;;;;;;;16.88;14.35;;;10.90;99.90;;;;;;2078617;28;20074;-69
2022/04/26 06:49:58;;;;;;;21.38;15.73;;;10.90;99.90;;;;;;2078937;28;20017;-69
2022/04/26 06:50:59;;;;;;;19.27;14.98;;;10.90;99.90;;;;;;2077514;28;20026;-69
2022/04/26 06:51:59;;;;;;;21.20;15.73;;;10.90;99.90;;;;;;2078095;28;20128;-69
2022/04/26 06:53:00;;;;;;;19.33;16.33;;;11.00;99.90;;;;;;2078950;28;20032;-69
2022/04/26 06:54:01;;;;;;;21.23;16.17;;;11.00;99.90;;;;;;2079083;28;20018;-69
2022/04/26 06:55:02;;;;;;;19.65;16.00;;;11.00;99.90;;;;;;2079154;28;20096;-70
2022/04/26 06:56:03;;;;;;;20.25;16.67;;;11.00;99.90;;;;;;2079614;28;20032;-69
2022/04/26 06:57:04;;;;;;;17.73;14.35;;;11.00;99.90;;;;;;2080460;28;20079;-69
2022/04/26 06:58:05;;;;;;;20.13;15.32;;;11.10;99.90;;;;;;2078123;28;20203;-69
2022/04/26 06:59:05;;;;;;;17.02;15.20;;;11.00;99.90;;;;;;2080477;28;20121;-69
2022/04/26 07:00:08;;;;;;;20.92;17.15;;;11.10;99.90;;;;;;2079558;28;20461;-69
2022/04/26 07:01:08;;;;;;;19.35;17.27;;;11.10;99.90;;;;;;2079896;28;20112;-69
2022/04/26 07:02:09;;;;;;;20.40;17.35;;;11.10;99.90;;;;;;2079042;28;20029;-69
2022/04/26 07:03:09;;;;;;;25.40;17.55;;;11.10;99.90;;;;;;2080343;28;20053;-69
2022/04/26 07:04:10;;;;;;;21.35;16.58;;;11.10;99.90;;;;;;2080841;28;20366;-69
2022/04/26 07:05:11;;;;;;;22.25;17.40;;;11.10;99.90;;;;;;2081929;28;20152;-69
2022/04/26 07:06:12;;;;;;;21.23;17.85;;;11.10;99.90;;;;;;2083391;28;20025;-69
2022/04/26 07:07:12;;;;;;;19.50;16.02;;;11.20;99.90;;;;;;2084342;28;20037;-69
2022/04/26 07:08:13;;;;;;;23.95;17.60;;;11.20;99.90;;;;;;2080480;28;20480;-69
2022/04/26 07:09:13;;;;;;;22.40;17.77;;;11.20;99.90;;;;;;2078159;28;20029;-69
2022/04/26 07:10:14;;;;;;;30.33;18.30;;;11.20;99.90;;;;;;2080532;28;20044;-69
2022/04/26 07:11:15;;;;;;;22.80;18.63;;;11.30;99.90;;;;;;2080143;28;20516;-69
2022/04/26 07:12:16;;;;;;;23.27;18.40;;;11.30;99.90;;;;;;2080506;28;20026;-69
2022/04/26 07:13:20;;;;;;;23.33;17.50;;;11.30;99.90;;;;;;2080318;28;20124;-69
2022/04/26 07:14:20;;;;;;;19.02;16.77;;;11.30;99.90;;;;;;2077389;28;20102;-69
2022/04/26 07:15:21;;;;;;;23.33;16.60;;;11.30;99.90;;;;;;2079711;28;20087;-69
2022/04/26 07:16:21;;;;;;;23.80;18.20;;;11.30;99.90;;;;;;2080833;28;20083;-69
2022/04/26 07:17:22;;;;;;;19.30;17.13;;;11.40;99.90;;;;;;2079563;28;20045;-69
2022/04/26 07:18:23;;;;;;;21.02;18.60;;;11.40;99.90;;;;;;2080573;28;20842;-69
2022/04/26 07:19:25;;;;;;;20.67;17.17;;;11.40;99.90;;;;;;2079755;28;20413;-69
2022/04/26 07:20:28;;;;;;;20.75;18.20;;;11.50;99.90;;;;;;2080423;28;20013;-69
2022/04/26 07:21:28;;;;;;;22.17;18.85;;;11.50;99.90;;;;;;2080448;28;20033;-69
2022/04/26 07:22:29;;;;;;;19.83;17.73;;;11.40;99.90;;;;;;2080432;28;20025;-69
2022/04/26 07:23:30;;;;;;;23.35;18.20;;;11.40;99.90;;;;;;2081546;28;20670;-69
2022/04/26 07:24:31;;;;;;;19.45;17.40;;;11.50;99.90;;;;;;2082300;28;20029;-69
2022/04/26 07:25:32;;;;;;;22.08;19.13;;;11.50;99.90;;;;;;2081196;28;20492;-72
2022/04/26 07:26:32;;;;;;;21.75;19.45;;;11.50;99.90;;;;;;2080973;28;20473;-69
2022/04/26 07:27:33;;;;;;;24.83;22.30;;;11.50;99.90;;;;;;2079886;28;20075;-69
2022/04/26 07:28:34;;;;;;;24.58;20.85;;;11.50;99.90;;;;;;2081339;28;20029;-69
2022/04/26 07:29:35;;;;;;;25.33;22.63;;;11.60;99.90;;;;;;2080141;28;20075;-69
2022/04/26 07:30:36;;;;;;;28.75;23.35;;;11.50;99.90;;;;;;2080382;28;20013;-69
2022/04/26 07:31:37;;;;;;;27.05;24.10;;;11.50;99.90;;;;;;2080147;28;20024;-69
2022/04/26 07:35:15;;;;;;;29.90;26.65;;;11.60;99.90;;;;;;2080057;28;20029;-69
2022/04/26 07:36:16;;;;;;;30.45;27.23;;;11.60;99.90;;;;;;2080270;28;20021;-69
2022/04/26 07:37:20;;;;;;;34.10;29.45;;;11.60;99.90;;;;;;2080453;28;20037;-69
2022/04/26 07:38:21;;;;;;;35.60;29.98;;;11.60;99.90;;;;;;2077052;28;20022;-69
2022/04/26 07:39:21;;;;;;;33.05;29.38;;;11.70;99.90;;;;;;2080749;28;20052;-69
2022/04/26 07:40:22;;;;;;;33.83;28.15;;;11.70;99.90;;;;;;2082247;28;20155;-69
2022/04/26 07:41:22;;;;;;;29.27;26.17;;;11.70;99.90;;;;;;2082151;28;20699;-69
2022/04/26 07:42:23;;;;;;;32.80;26.25;;;11.80;99.90;;;;;;2081528;28;20115;-69
2022/04/26 07:43:24;;;;;;;28.17;25.27;;;11.80;99.90;;;;;;2080933;28;20071;-69
2022/04/26 07:44:24;;;;;;;30.50;24.48;;;11.80;99.90;;;;;;2079952;28;20023;-69
2022/04/26 07:45:25;;;;;;;28.67;25.10;;;11.90;99.90;;;;;;2079504;28;20030;-69
2022/04/26 07:46:25;;;;;;;30.40;26.30;;;11.90;99.90;;;;;;2079926;28;20450;-69
2022/04/26 07:47:26;;;;;;;31.25;26.92;;;12.00;99.90;;;;;;2080215;28;20026;-69
2022/04/26 07:48:27;;;;;;;29.00;25.88;;;12.00;99.90;;;;;;2080022;28;20052;-69
2022/04/26 07:49:28;;;;;;;32.47;26.75;;;12.10;99.90;;;;;;2080261;28;20022;-69
2022/04/26 07:50:28;;;;;;;27.75;24.92;;;12.20;99.90;;;;;;2076223;28;20030;-69
2022/04/26 07:51:30;;;;;;;26.98;24.05;;;12.20;99.90;;;;;;2080462;28;20021;-69
2022/04/26 07:52:31;;;;;;;27.98;25.05;;;12.30;99.90;;;;;;2080065;28;20017;-69
2022/04/26 07:53:32;;;;;;;28.00;25.05;;;12.40;99.90;;;;;;2083669;28;20096;-69
2022/04/26 07:54:32;;;;;;;25.55;22.85;;;12.40;99.90;;;;;;2079865;28;20026;-69
2022/04/26 07:55:36;;;;;;;27.85;23.92;;;12.50;99.90;;;;;;2078045;28;20556;-69
2022/04/26 07:56:37;;;;;;;24.33;21.75;;;12.60;99.90;;;;;;2077589;28;20030;-69
2022/04/26 07:57:39;;;;;;;24.85;22.25;;;12.60;99.90;;;;;;2080091;28;20052;-69
2022/04/26 07:58:39;;;;;;;24.95;22.27;;;12.70;99.90;;;;;;2079421;28;20051;-69
2022/04/26 07:59:40;;;;;;;26.27;22.75;;;12.70;99.90;;;;;;2077458;28;20037;-69
2022/04/26 08:00:40;;;;;;;25.38;22.67;;;12.70;99.90;;;;;;2079940;28;20025;-69
2022/04/26 08:01:41;;;;;;;26.80;24.00;;;12.80;99.90;;;;;;2079780;28;20014;-69
2022/04/26 08:02:42;;;;;;;27.10;22.60;;;12.90;99.90;;;;;;2080594;28;20045;-69
2022/04/26 08:03:43;;;;;;;27.40;22.80;;;12.90;99.90;;;;;;2080061;28;20034;-69
2022/04/26 08:04:43;;;;;;;27.08;22.83;;;13.00;99.90;;;;;;2079969;28;20543;-69
2022/04/26 08:05:44;;;;;;;25.90;22.88;;;13.00;99.90;;;;;;2079494;28;20025;-69
2022/04/26 08:06:44;;;;;;;27.67;23.17;;;13.10;99.90;;;;;;2080018;28;20025;-69
2022/04/26 08:07:45;;;;;;;25.52;22.00;;;13.10;99.90;;;;;;2079146;28;20075;-69
2022/04/26 08:08:46;;;;;;;24.48;21.95;;;13.10;99.90;;;;;;2078478;28;20022;-69
2022/04/26 08:09:46;;;;;;;23.52;21.02;;;13.20;99.90;;;;;;2078187;28;20037;-69
2022/04/26 08:10:47;;;;;;;24.73;22.23;;;13.20;99.90;;;;;;2079917;28;20091;-70
2022/04/26 08:11:49;;;;;;;25.25;22.55;;;13.20;99.90;;;;;;2079943;28;20092;-69
2022/04/26 08:12:50;;;;;;;23.63;20.83;;;13.20;99.90;;;;;;2079856;28;20116;-69
2022/04/26 08:13:50;;;;;;;25.70;22.58;;;13.30;99.90;;;;;;2079886;28;20033;-69
2022/04/26 08:14:51;;;;;;;25.05;22.05;;;13.40;99.90;;;;;;2079998;28;20493;-69
2022/04/26 08:15:51;;;;;;;23.52;20.95;;;13.40;99.90;;;;;;2079301;28;20056;-69
2022/04/26 08:16:52;;;;;;;27.42;21.38;;;13.50;99.90;;;;;;2078609;28;20037;-69
2022/04/26 08:17:52;;;;;;;30.42;21.20;;;13.60;99.90;;;;;;2077936;28;20034;-69
2022/04/26 08:18:53;;;;;;;24.55;20.77;;;13.60;99.90;;;;;;2078347;28;20112;-69
2022/04/26 08:19:53;;;;;;;23.40;21.02;;;13.70;99.90;;;;;;2078768;28;20030;-69
2022/04/26 08:20:54;;;;;;;23.08;20.73;;;13.70;99.90;;;;;;2079847;28;20029;-69
2022/04/26 08:21:55;;;;;;;24.45;21.52;;;13.70;99.90;;;;;;2079482;28;20026;-69
2022/04/26 08:22:55;;;;;;;23.15;20.70;;;13.80;99.90;;;;;;2077608;28;20045;-69
2022/04/26 08:27:53;;;;;;;22.27;19.88;;;13.90;99.90;;;;;;2079447;28;20578;-69
2022/04/26 08:28:54;;;;;;;25.88;20.90;;;13.90;99.90;;;;;;2079884;28;20394;-69
2022/04/26 08:29:56;;;;;;;24.02;21.48;;;13.90;99.90;;;;;;2079503;28;20104;-69
2022/04/26 08:30:56;;;;;;;25.02;20.75;;;14.00;99.90;;;;;;2079685;28;20429;-69
2022/04/26 08:31:57;;;;;;;22.92;20.42;;;14.00;99.90;;;;;;2079732;28;20047;-69
2022/04/26 08:32:57;;;;;;;22.23;19.30;;;14.00;99.90;;;;;;2083494;28;20033;-70
2022/04/26 08:33:58;;;;;;;19.88;17.70;;;14.10;99.90;;;;;;2082835;28;20703;-70
2022/04/26 08:34:59;;;;;;;22.48;18.85;;;14.10;99.90;;;;;;2082354;28;20741;-70
2022/04/26 08:35:59;;;;;;;21.67;18.48;;;14.20;99.90;;;;;;2079136;28;20090;-70
2022/04/26 08:37:00;;;;;;;24.48;19.52;;;14.20;99.90;;;;;;2080498;28;20025;-70
2022/04/26 08:38:01;;;;;;;22.42;19.05;;;14.30;99.90;;;;;;2080317;28;20592;-70
2022/04/26 08:39:02;;;;;;;26.08;19.70;;;14.30;99.90;;;;;;2079881;28;20026;-70
2022/04/26 08:40:05;;;;;;;23.85;19.27;;;14.40;99.90;;;;;;2079793;28;20481;-70
2022/04/26 08:41:05;;;;;;;25.77;19.10;;;14.40;99.90;;;;;;2079607;28;20037;-69
2022/04/26 08:42:06;;;;;;;21.38;19.15;;;14.50;99.90;;;;;;2079841;28;20029;-72
2022/04/26 08:43:07;;;;;;;20.13;18.13;;;14.50;99.90;;;;;;2079468;28;20038;-70
2022/04/26 08:44:09;;;;;;;21.85;18.90;;;14.50;99.90;;;;;;2079927;28;20057;-72
2022/04/26 08:45:12;;;;;;;23.08;19.40;;;14.50;99.90;;;;;;2082299;28;20024;-72
2022/04/26 08:46:12;;;;;;;21.95;18.58;;;14.50;99.90;;;;;;2079937;28;20052;-72
2022/04/26 08:51:12;;;;;;;20.13;18.15;;;14.40;99.90;;;;;;2083829;28;20619;-77
2022/04/26 08:52:15;;;;;;;20.15;17.88;;;14.40;99.90;;;;;;2079023;28;20021;-78
2022/04/26 08:53:17;;;;;;;19.23;17.23;;;14.50;99.90;;;;;;2078909;28;20075;-77
2022/04/26 08:54:17;;;;;;;19.23;17.13;;;14.50;99.90;;;;;;2079796;28;20069;-77
2022/04/26 08:55:18;;;;;;;20.98;18.65;;;14.50;99.90;;;;;;2079004;28;20076;-77
2022/04/26 08:56:20;;;;;;;21.73;18.65;;;14.60;99.90;;;;;;2082970;28;20029;-77
2022/04/26 08:57:21;;;;;;;19.90;18.10;;;14.60;99.90;;;;;;2076391;28;20022;-77
2022/04/26 08:58:23;;;;;;;22.65;18.17;;;14.60;99.90;;;;;;2080333;28;20040;-77